ENRX weather

H√łnefoss Heliport, Ringerike Hospital
H√łnefoss, Buskerud, Norway

Public forecast

Using degrees Celsius for public forecast. Weather courtesy of forecast.io.

METAR (pilot weather report)

Closest report is Oslo, Fornebu Airport, 18.7 nm (34.6 km) SE. Retrieved 2019/05/22 18:20 UTC (0 seconds ago):

ENFB 221820Z AUTO 19009KT 160V220 1000NDV -RA BR BKN004/// 10/10 Q1006 W///S4

TAF (pilot weather forecast)

Closest forecast is Oslo Gardermoen Airport, 25.4 nm (47.0 km) E. Retrieved 2019/05/22 18:00 UTC (12 minutes ago):

TAF ENGM 221700Z 2218/2318 19008KT 9999 FEW030TCU BKN035 TEMPO 2218/2222 SHRA BKN014 FEW025CB PROB40 2222/2304 3000 BR BKN006